sensor_id;sensor_type;location;lat;lon;timestamp;P1;durP1;ratioP1;P2;durP2;ratioP2
9108;SDS011;4590;51.462;6.692;2022-10-16T00:00:38;3.50;;;1.40;;
9108;SDS011;4590;51.462;6.692;2022-10-16T00:03:05;3.85;;;1.55;;
9108;SDS011;4590;51.462;6.692;2022-10-16T00:05:31;2.75;;;1.20;;
9108;SDS011;4590;51.462;6.692;2022-10-16T00:07:56;3.08;;;1.52;;
9108;SDS011;4590;51.462;6.692;2022-10-16T00:10:22;2.93;;;1.50;;
9108;SDS011;4590;51.462;6.692;2022-10-16T00:12:48;2.28;;;1.50;;
9108;SDS011;4590;51.462;6.692;2022-10-16T00:15:13;2.70;;;1.57;;
9108;SDS011;4590;51.462;6.692;2022-10-16T00:17:39;3.20;;;1.60;;
9108;SDS011;4590;51.462;6.692;2022-10-16T00:20:04;3.50;;;1.67;;
9108;SDS011;4590;51.462;6.692;2022-10-16T00:22:30;3.03;;;1.50;;
9108;SDS011;4590;51.462;6.692;2022-10-16T00:24:55;3.30;;;1.55;;
9108;SDS011;4590;51.462;6.692;2022-10-16T00:27:21;4.00;;;1.77;;
9108;SDS011;4590;51.462;6.692;2022-10-16T00:29:49;3.13;;;1.70;;
9108;SDS011;4590;51.462;6.692;2022-10-16T00:32:16;5.25;;;1.80;;
9108;SDS011;4590;51.462;6.692;2022-10-16T00:34:41;2.85;;;1.60;;
9108;SDS011;4590;51.462;6.692;2022-10-16T00:37:07;3.87;;;1.60;;
9108;SDS011;4590;51.462;6.692;2022-10-16T00:39:32;3.60;;;1.67;;
9108;SDS011;4590;51.462;6.692;2022-10-16T00:41:57;2.63;;;2.00;;
9108;SDS011;4590;51.462;6.692;2022-10-16T00:47:19;3.25;;;1.60;;
9108;SDS011;4590;51.462;6.692;2022-10-16T00:49:51;4.50;;;1.80;;
9108;SDS011;4590;51.462;6.692;2022-10-16T00:52:23;3.95;;;1.75;;
9108;SDS011;4590;51.462;6.692;2022-10-16T00:54:49;4.25;;;1.55;;
9108;SDS011;4590;51.462;6.692;2022-10-16T00:57:15;4.65;;;1.73;;
9108;SDS011;4590;51.462;6.692;2022-10-16T00:59:41;4.07;;;1.73;;
9108;SDS011;4590;51.462;6.692;2022-10-16T01:02:09;2.53;;;1.73;;
9108;SDS011;4590;51.462;6.692;2022-10-16T01:04:38;3.20;;;1.92;;
9108;SDS011;4590;51.462;6.692;2022-10-16T01:07:26;4.50;;;1.80;;
9108;SDS011;4590;51.462;6.692;2022-10-16T01:13:10;4.13;;;1.67;;
9108;SDS011;4590;51.462;6.692;2022-10-16T01:18:11;3.97;;;1.90;;
9108;SDS011;4590;51.462;6.692;2022-10-16T01:20:44;2.75;;;1.50;;
9108;SDS011;4590;51.462;6.692;2022-10-16T01:23:33;5.18;;;1.60;;
9108;SDS011;4590;51.462;6.692;2022-10-16T01:28:41;5.47;;;1.60;;
9108;SDS011;4590;51.462;6.692;2022-10-16T01:31:09;2.78;;;1.52;;
9108;SDS011;4590;51.462;6.692;2022-10-16T01:33:41;1.90;;;1.27;;
9108;SDS011;4590;51.462;6.692;2022-10-16T01:36:13;4.20;;;1.58;;
9108;SDS011;4590;51.462;6.692;2022-10-16T01:38:41;2.45;;;1.40;;
9108;SDS011;4590;51.462;6.692;2022-10-16T01:41:11;2.55;;;1.40;;
9108;SDS011;4590;51.462;6.692;2022-10-16T01:43:43;2.92;;;1.17;;
9108;SDS011;4590;51.462;6.692;2022-10-16T01:46:13;3.80;;;1.95;;
9108;SDS011;4590;51.462;6.692;2022-10-16T01:48:41;2.10;;;1.30;;
9108;SDS011;4590;51.462;6.692;2022-10-16T01:51:08;4.70;;;1.60;;
9108;SDS011;4590;51.462;6.692;2022-10-16T01:53:36;3.85;;;1.40;;
9108;SDS011;4590;51.462;6.692;2022-10-16T01:56:04;4.40;;;1.33;;
9108;SDS011;4590;51.462;6.692;2022-10-16T01:58:34;4.20;;;1.50;;
9108;SDS011;4590;51.462;6.692;2022-10-16T02:01:03;3.88;;;1.60;;
9108;SDS011;4590;51.462;6.692;2022-10-16T02:03:32;3.47;;;1.50;;
9108;SDS011;4590;51.462;6.692;2022-10-16T02:06:01;4.40;;;1.40;;
9108;SDS011;4590;51.462;6.692;2022-10-16T02:08:27;2.67;;;1.47;;
9108;SDS011;4590;51.462;6.692;2022-10-16T02:10:57;4.00;;;1.30;;
9108;SDS011;4590;51.462;6.692;2022-10-16T02:13:35;3.88;;;1.67;;
9108;SDS011;4590;51.462;6.692;2022-10-16T02:16:07;2.83;;;1.20;;
9108;SDS011;4590;51.462;6.692;2022-10-16T02:18:34;2.05;;;1.20;;
9108;SDS011;4590;51.462;6.692;2022-10-16T02:21:01;2.13;;;1.10;;
9108;SDS011;4590;51.462;6.692;2022-10-16T02:23:37;1.77;;;0.98;;
9108;SDS011;4590;51.462;6.692;2022-10-16T02:26:12;3.13;;;1.00;;
9108;SDS011;4590;51.462;6.692;2022-10-16T02:28:42;2.58;;;1.00;;
9108;SDS011;4590;51.462;6.692;2022-10-16T02:31:12;2.17;;;1.17;;
9108;SDS011;4590;51.462;6.692;2022-10-16T02:33:43;2.25;;;0.80;;
9108;SDS011;4590;51.462;6.692;2022-10-16T02:36:11;6.75;;;1.30;;
9108;SDS011;4590;51.462;6.692;2022-10-16T02:38:36;3.67;;;1.40;;
9108;SDS011;4590;51.462;6.692;2022-10-16T02:41:03;4.57;;;1.10;;
9108;SDS011;4590;51.462;6.692;2022-10-16T02:43:29;1.58;;;1.00;;
9108;SDS011;4590;51.462;6.692;2022-10-16T02:45:55;4.43;;;1.10;;
9108;SDS011;4590;51.462;6.692;2022-10-16T02:48:20;2.03;;;1.00;;
9108;SDS011;4590;51.462;6.692;2022-10-16T02:50:46;2.80;;;0.87;;
9108;SDS011;4590;51.462;6.692;2022-10-16T02:53:11;2.73;;;1.20;;
9108;SDS011;4590;51.462;6.692;2022-10-16T02:55:36;3.30;;;1.20;;
9108;SDS011;4590;51.462;6.692;2022-10-16T02:58:01;2.30;;;1.23;;
9108;SDS011;4590;51.462;6.692;2022-10-16T03:00:27;3.13;;;1.40;;
9108;SDS011;4590;51.462;6.692;2022-10-16T03:05:18;2.00;;;1.40;;
9108;SDS011;4590;51.462;6.692;2022-10-16T03:07:44;2.10;;;1.17;;
9108;SDS011;4590;51.462;6.692;2022-10-16T03:10:09;2.20;;;1.40;;
9108;SDS011;4590;51.462;6.692;2022-10-16T03:12:34;3.87;;;1.50;;
9108;SDS011;4590;51.462;6.692;2022-10-16T03:14:59;2.17;;;1.23;;
9108;SDS011;4590;51.462;6.692;2022-10-16T03:17:25;2.05;;;1.38;;
9108;SDS011;4590;51.462;6.692;2022-10-16T03:19:50;1.80;;;1.23;;
9108;SDS011;4590;51.462;6.692;2022-10-16T03:22:16;2.08;;;1.42;;
9108;SDS011;4590;51.462;6.692;2022-10-16T03:24:41;1.93;;;1.27;;
9108;SDS011;4590;51.462;6.692;2022-10-16T03:27:07;2.43;;;1.23;;
9108;SDS011;4590;51.462;6.692;2022-10-16T03:29:32;1.53;;;0.90;;
9108;SDS011;4590;51.462;6.692;2022-10-16T03:31:58;1.73;;;1.10;;
9108;SDS011;4590;51.462;6.692;2022-10-16T03:34:23;2.58;;;1.00;;
9108;SDS011;4590;51.462;6.692;2022-10-16T03:36:49;1.98;;;0.90;;
9108;SDS011;4590;51.462;6.692;2022-10-16T03:39:14;2.40;;;0.83;;
9108;SDS011;4590;51.462;6.692;2022-10-16T03:41:39;3.77;;;1.07;;
9108;SDS011;4590;51.462;6.692;2022-10-16T03:44:05;2.97;;;1.00;;
9108;SDS011;4590;51.462;6.692;2022-10-16T03:46:30;2.85;;;1.08;;
9108;SDS011;4590;51.462;6.692;2022-10-16T03:48:56;1.43;;;0.70;;
9108;SDS011;4590;51.462;6.692;2022-10-16T03:51:21;1.50;;;0.77;;
9108;SDS011;4590;51.462;6.692;2022-10-16T03:53:46;1.63;;;0.70;;
9108;SDS011;4590;51.462;6.692;2022-10-16T03:56:12;1.50;;;0.90;;
9108;SDS011;4590;51.462;6.692;2022-10-16T03:58:38;1.88;;;0.70;;
9108;SDS011;4590;51.462;6.692;2022-10-16T04:01:03;1.90;;;1.00;;
9108;SDS011;4590;51.462;6.692;2022-10-16T04:03:29;2.10;;;1.00;;
9108;SDS011;4590;51.462;6.692;2022-10-16T04:05:54;1.67;;;0.97;;
9108;SDS011;4590;51.462;6.692;2022-10-16T04:08:19;2.03;;;1.00;;
9108;SDS011;4590;51.462;6.692;2022-10-16T04:10:44;1.77;;;0.93;;
9108;SDS011;4590;51.462;6.692;2022-10-16T04:13:10;1.50;;;0.77;;
9108;SDS011;4590;51.462;6.692;2022-10-16T04:15:36;2.58;;;0.90;;
9108;SDS011;4590;51.462;6.692;2022-10-16T04:18:03;2.08;;;0.88;;
9108;SDS011;4590;51.462;6.692;2022-10-16T04:20:28;2.35;;;0.88;;
9108;SDS011;4590;51.462;6.692;2022-10-16T04:22:54;3.38;;;0.73;;
9108;SDS011;4590;51.462;6.692;2022-10-16T04:25:19;2.97;;;1.03;;
9108;SDS011;4590;51.462;6.692;2022-10-16T04:27:45;2.13;;;0.80;;
9108;SDS011;4590;51.462;6.692;2022-10-16T04:30:10;1.00;;;0.67;;
9108;SDS011;4590;51.462;6.692;2022-10-16T04:32:36;1.23;;;0.68;;
9108;SDS011;4590;51.462;6.692;2022-10-16T04:35:01;1.80;;;0.70;;
9108;SDS011;4590;51.462;6.692;2022-10-16T04:37:26;1.27;;;0.70;;
9108;SDS011;4590;51.462;6.692;2022-10-16T04:39:52;1.50;;;0.70;;
9108;SDS011;4590;51.462;6.692;2022-10-16T04:42:18;1.55;;;0.77;;
9108;SDS011;4590;51.462;6.692;2022-10-16T04:44:44;1.90;;;0.80;;
9108;SDS011;4590;51.462;6.692;2022-10-16T04:47:09;2.53;;;0.90;;
9108;SDS011;4590;51.462;6.692;2022-10-16T04:49:34;1.27;;;0.90;;
9108;SDS011;4590;51.462;6.692;2022-10-16T04:52:00;2.00;;;0.90;;
9108;SDS011;4590;51.462;6.692;2022-10-16T04:54:25;3.17;;;0.90;;
9108;SDS011;4590;51.462;6.692;2022-10-16T04:56:50;1.20;;;0.80;;
9108;SDS011;4590;51.462;6.692;2022-10-16T04:59:17;1.90;;;0.82;;
9108;SDS011;4590;51.462;6.692;2022-10-16T05:01:43;2.22;;;0.88;;
9108;SDS011;4590;51.462;6.692;2022-10-16T05:04:09;1.65;;;1.00;;
9108;SDS011;4590;51.462;6.692;2022-10-16T05:06:35;1.75;;;0.90;;
9108;SDS011;4590;51.462;6.692;2022-10-16T05:09:01;2.88;;;1.02;;
9108;SDS011;4590;51.462;6.692;2022-10-16T05:11:27;1.60;;;0.82;;
9108;SDS011;4590;51.462;6.692;2022-10-16T05:13:52;2.03;;;0.70;;
9108;SDS011;4590;51.462;6.692;2022-10-16T05:16:17;2.23;;;0.80;;
9108;SDS011;4590;51.462;6.692;2022-10-16T05:18:43;1.63;;;0.80;;
9108;SDS011;4590;51.462;6.692;2022-10-16T05:21:08;2.43;;;1.10;;
9108;SDS011;4590;51.462;6.692;2022-10-16T05:23:33;1.48;;;0.80;;
9108;SDS011;4590;51.462;6.692;2022-10-16T05:25:59;1.47;;;0.87;;
9108;SDS011;4590;51.462;6.692;2022-10-16T05:28:25;2.03;;;0.90;;
9108;SDS011;4590;51.462;6.692;2022-10-16T05:30:51;2.55;;;0.80;;
9108;SDS011;4590;51.462;6.692;2022-10-16T05:33:19;2.45;;;0.90;;
9108;SDS011;4590;51.462;6.692;2022-10-16T05:35:45;2.05;;;0.77;;
9108;SDS011;4590;51.462;6.692;2022-10-16T05:38:11;3.67;;;1.10;;
9108;SDS011;4590;51.462;6.692;2022-10-16T05:40:36;1.97;;;0.63;;
9108;SDS011;4590;51.462;6.692;2022-10-16T05:43:01;2.83;;;0.70;;
9108;SDS011;4590;51.462;6.692;2022-10-16T05:45:27;2.13;;;0.80;;
9108;SDS011;4590;51.462;6.692;2022-10-16T05:47:52;3.40;;;0.73;;
9108;SDS011;4590;51.462;6.692;2022-10-16T05:50:17;1.23;;;0.67;;
9108;SDS011;4590;51.462;6.692;2022-10-16T05:52:43;3.03;;;1.00;;
9108;SDS011;4590;51.462;6.692;2022-10-16T05:55:08;1.50;;;0.87;;
9108;SDS011;4590;51.462;6.692;2022-10-16T05:57:33;1.87;;;0.80;;
9108;SDS011;4590;51.462;6.692;2022-10-16T05:59:59;1.27;;;0.77;;
9108;SDS011;4590;51.462;6.692;2022-10-16T06:02:24;1.50;;;0.90;;
9108;SDS011;4590;51.462;6.692;2022-10-16T06:04:51;1.70;;;1.00;;
9108;SDS011;4590;51.462;6.692;2022-10-16T06:07:18;2.80;;;1.13;;
9108;SDS011;4590;51.462;6.692;2022-10-16T06:09:43;2.03;;;1.10;;
9108;SDS011;4590;51.462;6.692;2022-10-16T06:12:09;1.87;;;1.10;;
9108;SDS011;4590;51.462;6.692;2022-10-16T06:14:34;1.67;;;1.00;;
9108;SDS011;4590;51.462;6.692;2022-10-16T06:16:59;1.20;;;0.90;;
9108;SDS011;4590;51.462;6.692;2022-10-16T06:19:24;3.03;;;1.20;;
9108;SDS011;4590;51.462;6.692;2022-10-16T06:21:50;1.40;;;0.80;;
9108;SDS011;4590;51.462;6.692;2022-10-16T06:24:15;2.60;;;1.10;;
9108;SDS011;4590;51.462;6.692;2022-10-16T06:26:40;2.07;;;1.57;;
9108;SDS011;4590;51.462;6.692;2022-10-16T06:29:05;2.63;;;1.20;;
9108;SDS011;4590;51.462;6.692;2022-10-16T06:31:31;2.00;;;1.10;;
9108;SDS011;4590;51.462;6.692;2022-10-16T06:33:58;2.45;;;1.30;;
9108;SDS011;4590;51.462;6.692;2022-10-16T06:36:24;2.63;;;1.17;;
9108;SDS011;4590;51.462;6.692;2022-10-16T06:38:50;2.22;;;1.20;;
9108;SDS011;4590;51.462;6.692;2022-10-16T06:41:17;4.40;;;1.10;;
9108;SDS011;4590;51.462;6.692;2022-10-16T06:43:44;2.53;;;1.38;;
9108;SDS011;4590;51.462;6.692;2022-10-16T06:46:13;1.90;;;1.20;;
9108;SDS011;4590;51.462;6.692;2022-10-16T06:48:40;2.25;;;1.23;;
9108;SDS011;4590;51.462;6.692;2022-10-16T06:51:06;4.43;;;1.40;;
9108;SDS011;4590;51.462;6.692;2022-10-16T06:53:35;2.55;;;1.25;;
9108;SDS011;4590;51.462;6.692;2022-10-16T06:56:18;3.13;;;1.10;;
9108;SDS011;4590;51.462;6.692;2022-10-16T06:58:43;3.65;;;1.60;;
9108;SDS011;4590;51.462;6.692;2022-10-16T07:01:09;3.27;;;1.10;;
9108;SDS011;4590;51.462;6.692;2022-10-16T07:03:36;2.22;;;1.30;;
9108;SDS011;4590;51.462;6.692;2022-10-16T07:06:03;1.98;;;1.48;;
9108;SDS011;4590;51.462;6.692;2022-10-16T07:08:32;1.95;;;1.30;;
9108;SDS011;4590;51.462;6.692;2022-10-16T07:11:03;3.10;;;1.30;;
9108;SDS011;4590;51.462;6.692;2022-10-16T07:13:30;3.45;;;1.27;;
9108;SDS011;4590;51.462;6.692;2022-10-16T07:16:03;1.88;;;1.08;;
9108;SDS011;4590;51.462;6.692;2022-10-16T07:18:29;2.35;;;1.20;;
9108;SDS011;4590;51.462;6.692;2022-10-16T07:21:02;2.10;;;0.93;;
9108;SDS011;4590;51.462;6.692;2022-10-16T07:23:29;2.25;;;1.05;;
9108;SDS011;4590;51.462;6.692;2022-10-16T07:25:54;2.50;;;1.10;;
9108;SDS011;4590;51.462;6.692;2022-10-16T07:28:20;2.08;;;1.40;;
9108;SDS011;4590;51.462;6.692;2022-10-16T07:30:45;1.93;;;1.40;;
9108;SDS011;4590;51.462;6.692;2022-10-16T07:33:10;2.90;;;1.40;;
9108;SDS011;4590;51.462;6.692;2022-10-16T07:35:36;2.00;;;1.20;;
9108;SDS011;4590;51.462;6.692;2022-10-16T07:38:01;2.40;;;1.40;;
9108;SDS011;4590;51.462;6.692;2022-10-16T07:40:26;3.57;;;1.37;;
9108;SDS011;4590;51.462;6.692;2022-10-16T07:42:52;2.92;;;1.42;;
9108;SDS011;4590;51.462;6.692;2022-10-16T07:45:17;1.90;;;1.23;;
9108;SDS011;4590;51.462;6.692;2022-10-16T07:47:42;2.17;;;1.40;;
9108;SDS011;4590;51.462;6.692;2022-10-16T07:50:08;2.40;;;1.27;;
9108;SDS011;4590;51.462;6.692;2022-10-16T07:52:33;5.43;;;1.50;;
9108;SDS011;4590;51.462;6.692;2022-10-16T07:54:58;1.53;;;1.03;;
9108;SDS011;4590;51.462;6.692;2022-10-16T07:57:23;1.60;;;1.10;;
9108;SDS011;4590;51.462;6.692;2022-10-16T07:59:49;2.00;;;1.00;;
9108;SDS011;4590;51.462;6.692;2022-10-16T08:02:14;2.30;;;1.00;;
9108;SDS011;4590;51.462;6.692;2022-10-16T08:04:39;2.37;;;1.00;;
9108;SDS011;4590;51.462;6.692;2022-10-16T08:07:06;2.60;;;1.00;;
9108;SDS011;4590;51.462;6.692;2022-10-16T08:09:32;1.58;;;1.00;;
9108;SDS011;4590;51.462;6.692;2022-10-16T08:11:58;3.57;;;1.23;;
9108;SDS011;4590;51.462;6.692;2022-10-16T08:14:23;3.17;;;1.00;;
9108;SDS011;4590;51.462;6.692;2022-10-16T08:16:48;1.97;;;0.90;;
9108;SDS011;4590;51.462;6.692;2022-10-16T08:19:14;3.03;;;1.03;;
9108;SDS011;4590;51.462;6.692;2022-10-16T08:21:40;1.90;;;0.90;;
9108;SDS011;4590;51.462;6.692;2022-10-16T08:24:05;2.03;;;0.93;;
9108;SDS011;4590;51.462;6.692;2022-10-16T08:26:31;2.03;;;0.80;;
9108;SDS011;4590;51.462;6.692;2022-10-16T08:28:56;2.95;;;0.90;;
9108;SDS011;4590;51.462;6.692;2022-10-16T08:31:21;1.67;;;0.60;;
9108;SDS011;4590;51.462;6.692;2022-10-16T08:33:47;1.00;;;0.70;;
9108;SDS011;4590;51.462;6.692;2022-10-16T08:36:13;2.30;;;0.70;;
9108;SDS011;4590;51.462;6.692;2022-10-16T08:38:39;2.03;;;0.80;;
9108;SDS011;4590;51.462;6.692;2022-10-16T08:41:20;1.48;;;0.70;;
9108;SDS011;4590;51.462;6.692;2022-10-16T08:49:29;3.55;;;0.90;;
9108;SDS011;4590;51.462;6.692;2022-10-16T08:54:32;1.20;;;0.57;;
9108;SDS011;4590;51.462;6.692;2022-10-16T08:57:09;1.80;;;0.70;;
9108;SDS011;4590;51.462;6.692;2022-10-16T08:59:36;2.13;;;0.70;;
9108;SDS011;4590;51.462;6.692;2022-10-16T09:07:32;1.48;;;0.70;;
9108;SDS011;4590;51.462;6.692;2022-10-16T09:12:56;2.05;;;0.70;;
9108;SDS011;4590;51.462;6.692;2022-10-16T09:15:32;1.52;;;0.60;;
9108;SDS011;4590;51.462;6.692;2022-10-16T09:18:03;2.72;;;0.52;;
9108;SDS011;4590;51.462;6.692;2022-10-16T09:20:56;1.58;;;0.77;;
9108;SDS011;4590;51.462;6.692;2022-10-16T09:23:30;1.73;;;0.77;;
9108;SDS011;4590;51.462;6.692;2022-10-16T09:26:02;1.63;;;0.60;;
9108;SDS011;4590;51.462;6.692;2022-10-16T09:28:28;2.13;;;0.60;;
9108;SDS011;4590;51.462;6.692;2022-10-16T09:33:20;1.30;;;0.50;;
9108;SDS011;4590;51.462;6.692;2022-10-16T09:35:58;1.40;;;0.60;;
9108;SDS011;4590;51.462;6.692;2022-10-16T09:38:25;2.38;;;0.70;;
9108;SDS011;4590;51.462;6.692;2022-10-16T09:40:53;1.13;;;0.57;;
9108;SDS011;4590;51.462;6.692;2022-10-16T09:45:58;2.08;;;0.70;;
9108;SDS011;4590;51.462;6.692;2022-10-16T09:48:33;2.20;;;0.55;;
9108;SDS011;4590;51.462;6.692;2022-10-16T09:51:03;1.80;;;0.50;;
9108;SDS011;4590;51.462;6.692;2022-10-16T09:53:43;2.03;;;0.55;;
9108;SDS011;4590;51.462;6.692;2022-10-16T09:56:11;2.25;;;0.50;;
9108;SDS011;4590;51.462;6.692;2022-10-16T09:59:31;1.85;;;0.65;;
9108;SDS011;4590;51.462;6.692;2022-10-16T10:01:37;2.10;;;0.60;;
9108;SDS011;4590;51.462;6.692;2022-10-16T10:04:04;0.70;;;0.40;;
9108;SDS011;4590;51.462;6.692;2022-10-16T10:06:33;4.15;;;0.70;;
9108;SDS011;4590;51.462;6.692;2022-10-16T10:14:20;1.83;;;0.90;;
9108;SDS011;4590;51.462;6.692;2022-10-16T10:16:48;1.48;;;0.60;;
9108;SDS011;4590;51.462;6.692;2022-10-16T10:19:15;1.80;;;0.55;;
9108;SDS011;4590;51.462;6.692;2022-10-16T10:21:45;2.42;;;0.70;;
9108;SDS011;4590;51.462;6.692;2022-10-16T10:24:12;1.52;;;0.50;;
9108;SDS011;4590;51.462;6.692;2022-10-16T10:27:02;1.98;;;0.60;;
9108;SDS011;4590;51.462;6.692;2022-10-16T10:29:50;1.80;;;0.50;;
9108;SDS011;4590;51.462;6.692;2022-10-16T10:35:17;1.25;;;0.50;;
9108;SDS011;4590;51.462;6.692;2022-10-16T10:46:18;0.77;;;0.30;;
9108;SDS011;4590;51.462;6.692;2022-10-16T10:55:14;2.30;;;0.55;;
9108;SDS011;4590;51.462;6.692;2022-10-16T11:00:55;1.02;;;0.50;;
9108;SDS011;4590;51.462;6.692;2022-10-16T11:03:46;1.38;;;0.40;;
9108;SDS011;4590;51.462;6.692;2022-10-16T11:06:43;1.13;;;0.40;;
9108;SDS011;4590;51.462;6.692;2022-10-16T11:09:15;2.00;;;0.57;;
9108;SDS011;4590;51.462;6.692;2022-10-16T11:11:45;1.73;;;0.38;;
9108;SDS011;4590;51.462;6.692;2022-10-16T11:14:53;2.40;;;0.50;;
9108;SDS011;4590;51.462;6.692;2022-10-16T11:17:30;1.75;;;0.40;;
9108;SDS011;4590;51.462;6.692;2022-10-16T11:20:02;1.52;;;0.40;;
9108;SDS011;4590;51.462;6.692;2022-10-16T11:22:39;2.30;;;0.55;;
9108;SDS011;4590;51.462;6.692;2022-10-16T11:25:13;3.13;;;0.55;;
9108;SDS011;4590;51.462;6.692;2022-10-16T11:27:47;1.45;;;0.50;;
9108;SDS011;4590;51.462;6.692;2022-10-16T11:30:44;0.90;;;0.50;;
9108;SDS011;4590;51.462;6.692;2022-10-16T11:36:42;2.72;;;0.50;;
9108;SDS011;4590;51.462;6.692;2022-10-16T11:39:21;1.42;;;0.30;;
9108;SDS011;4590;51.462;6.692;2022-10-16T11:46:40;1.33;;;0.47;;
9108;SDS011;4590;51.462;6.692;2022-10-16T11:49:14;1.58;;;0.40;;
9108;SDS011;4590;51.462;6.692;2022-10-16T11:51:45;2.38;;;0.50;;
9108;SDS011;4590;51.462;6.692;2022-10-16T11:54:29;3.15;;;0.47;;
9108;SDS011;4590;51.462;6.692;2022-10-16T11:57:02;1.52;;;0.63;;
9108;SDS011;4590;51.462;6.692;2022-10-16T12:00:00;2.15;;;0.50;;
9108;SDS011;4590;51.462;6.692;2022-10-16T12:08:08;2.40;;;0.50;;
9108;SDS011;4590;51.462;6.692;2022-10-16T12:10:36;2.45;;;0.50;;
9108;SDS011;4590;51.462;6.692;2022-10-16T12:13:25;1.05;;;0.40;;
9108;SDS011;4590;51.462;6.692;2022-10-16T12:16:05;4.57;;;0.60;;
9108;SDS011;4590;51.462;6.692;2022-10-16T12:18:37;2.58;;;0.60;;
9108;SDS011;4590;51.462;6.692;2022-10-16T12:21:04;1.38;;;0.45;;
9108;SDS011;4590;51.462;6.692;2022-10-16T12:23:31;1.50;;;0.50;;
9108;SDS011;4590;51.462;6.692;2022-10-16T12:26:11;1.20;;;0.38;;
9108;SDS011;4590;51.462;6.692;2022-10-16T12:31:04;2.33;;;0.60;;
9108;SDS011;4590;51.462;6.692;2022-10-16T12:33:34;2.00;;;0.50;;
9108;SDS011;4590;51.462;6.692;2022-10-16T12:36:02;1.20;;;0.32;;
9108;SDS011;4590;51.462;6.692;2022-10-16T12:38:37;1.90;;;0.50;;
9108;SDS011;4590;51.462;6.692;2022-10-16T12:41:11;1.65;;;0.30;;
9108;SDS011;4590;51.462;6.692;2022-10-16T12:43:40;1.23;;;0.47;;
9108;SDS011;4590;51.462;6.692;2022-10-16T12:48:36;1.08;;;0.50;;
9108;SDS011;4590;51.462;6.692;2022-10-16T12:51:19;1.85;;;0.40;;
9108;SDS011;4590;51.462;6.692;2022-10-16T12:59:51;1.90;;;0.50;;
9108;SDS011;4590;51.462;6.692;2022-10-16T13:05:21;1.45;;;0.40;;
9108;SDS011;4590;51.462;6.692;2022-10-16T13:32:46;3.35;;;0.40;;
9108;SDS011;4590;51.462;6.692;2022-10-16T13:35:21;2.25;;;0.38;;
9108;SDS011;4590;51.462;6.692;2022-10-16T13:38:04;1.25;;;0.50;;
9108;SDS011;4590;51.462;6.692;2022-10-16T13:40:36;2.08;;;0.70;;
9108;SDS011;4590;51.462;6.692;2022-10-16T13:43:01;1.60;;;0.50;;
9108;SDS011;4590;51.462;6.692;2022-10-16T13:48:05;0.50;;;0.25;;
9108;SDS011;4590;51.462;6.692;2022-10-16T13:50:34;2.72;;;0.50;;
9108;SDS011;4590;51.462;6.692;2022-10-16T13:55:28;1.77;;;0.60;;
9108;SDS011;4590;51.462;6.692;2022-10-16T13:57:54;1.65;;;0.50;;
9108;SDS011;4590;51.462;6.692;2022-10-16T14:00:29;1.10;;;0.60;;
9108;SDS011;4590;51.462;6.692;2022-10-16T14:02:58;1.63;;;0.70;;
9108;SDS011;4590;51.462;6.692;2022-10-16T14:05:29;2.50;;;0.52;;
9108;SDS011;4590;51.462;6.692;2022-10-16T14:10:25;2.58;;;0.50;;
9108;SDS011;4590;51.462;6.692;2022-10-16T14:13:02;1.33;;;0.47;;
9108;SDS011;4590;51.462;6.692;2022-10-16T14:15:30;2.83;;;0.60;;
9108;SDS011;4590;51.462;6.692;2022-10-16T14:17:57;1.45;;;0.50;;
9108;SDS011;4590;51.462;6.692;2022-10-16T14:20:24;2.22;;;0.57;;
9108;SDS011;4590;51.462;6.692;2022-10-16T14:23:00;3.67;;;0.80;;
9108;SDS011;4590;51.462;6.692;2022-10-16T14:25:43;1.70;;;0.45;;
9108;SDS011;4590;51.462;6.692;2022-10-16T14:30:55;2.33;;;0.50;;
9108;SDS011;4590;51.462;6.692;2022-10-16T14:35:59;1.75;;;0.70;;
9108;SDS011;4590;51.462;6.692;2022-10-16T14:38:27;1.42;;;0.50;;
9108;SDS011;4590;51.462;6.692;2022-10-16T14:43:22;2.15;;;0.63;;
9108;SDS011;4590;51.462;6.692;2022-10-16T14:45:53;2.83;;;0.60;;
9108;SDS011;4590;51.462;6.692;2022-10-16T14:48:20;2.20;;;0.70;;
9108;SDS011;4590;51.462;6.692;2022-10-16T14:53:11;1.45;;;0.50;;
9108;SDS011;4590;51.462;6.692;2022-10-16T14:55:37;3.60;;;1.15;;
9108;SDS011;4590;51.462;6.692;2022-10-16T14:58:03;1.35;;;0.52;;
9108;SDS011;4590;51.462;6.692;2022-10-16T15:00:29;2.65;;;0.60;;
9108;SDS011;4590;51.462;6.692;2022-10-16T15:05:29;1.10;;;0.60;;
9108;SDS011;4590;51.462;6.692;2022-10-16T15:07:54;1.65;;;0.50;;
9108;SDS011;4590;51.462;6.692;2022-10-16T15:10:20;1.67;;;0.47;;
9108;SDS011;4590;51.462;6.692;2022-10-16T15:12:47;1.25;;;0.60;;
9108;SDS011;4590;51.462;6.692;2022-10-16T15:17:55;2.22;;;0.80;;
9108;SDS011;4590;51.462;6.692;2022-10-16T15:20:22;1.67;;;0.90;;
9108;SDS011;4590;51.462;6.692;2022-10-16T15:22:49;3.22;;;1.35;;
9108;SDS011;4590;51.462;6.692;2022-10-16T15:25:35;2.58;;;1.50;;
9108;SDS011;4590;51.462;6.692;2022-10-16T15:28:04;4.32;;;1.70;;
9108;SDS011;4590;51.462;6.692;2022-10-16T15:30:32;3.95;;;1.90;;
9108;SDS011;4590;51.462;6.692;2022-10-16T15:32:57;3.60;;;2.10;;
9108;SDS011;4590;51.462;6.692;2022-10-16T15:37:49;2.72;;;1.40;;
9108;SDS011;4590;51.462;6.692;2022-10-16T15:40:14;1.77;;;0.80;;
9108;SDS011;4590;51.462;6.692;2022-10-16T15:42:41;1.90;;;0.90;;
9108;SDS011;4590;51.462;6.692;2022-10-16T15:45:06;2.25;;;1.00;;
9108;SDS011;4590;51.462;6.692;2022-10-16T15:47:34;2.95;;;1.77;;
9108;SDS011;4590;51.462;6.692;2022-10-16T15:49:59;3.63;;;2.50;;
9108;SDS011;4590;51.462;6.692;2022-10-16T15:54:50;3.50;;;1.80;;
9108;SDS011;4590;51.462;6.692;2022-10-16T15:59:40;4.07;;;2.00;;
9108;SDS011;4590;51.462;6.692;2022-10-16T16:02:05;5.50;;;2.20;;
9108;SDS011;4590;51.462;6.692;2022-10-16T16:06:56;1.90;;;1.00;;
9108;SDS011;4590;51.462;6.692;2022-10-16T16:09:21;5.03;;;2.70;;
9108;SDS011;4590;51.462;6.692;2022-10-16T16:11:47;3.72;;;1.88;;
9108;SDS011;4590;51.462;6.692;2022-10-16T16:14:14;6.28;;;3.10;;
9108;SDS011;4590;51.462;6.692;2022-10-16T16:16:40;8.50;;;3.65;;
9108;SDS011;4590;51.462;6.692;2022-10-16T16:19:06;9.18;;;5.57;;
9108;SDS011;4590;51.462;6.692;2022-10-16T16:21:32;6.70;;;2.90;;
9108;SDS011;4590;51.462;6.692;2022-10-16T16:23:58;5.43;;;2.10;;
9108;SDS011;4590;51.462;6.692;2022-10-16T16:26:28;5.55;;;2.42;;
9108;SDS011;4590;51.462;6.692;2022-10-16T16:28:59;3.80;;;2.08;;
9108;SDS011;4590;51.462;6.692;2022-10-16T16:31:24;3.42;;;1.90;;
9108;SDS011;4590;51.462;6.692;2022-10-16T16:33:51;5.13;;;2.00;;
9108;SDS011;4590;51.462;6.692;2022-10-16T16:36:17;5.07;;;2.00;;
9108;SDS011;4590;51.462;6.692;2022-10-16T16:41:16;5.85;;;2.80;;
9108;SDS011;4590;51.462;6.692;2022-10-16T16:43:43;8.80;;;3.80;;
9108;SDS011;4590;51.462;6.692;2022-10-16T16:46:08;5.80;;;2.55;;
9108;SDS011;4590;51.462;6.692;2022-10-16T16:48:34;7.15;;;3.17;;
9108;SDS011;4590;51.462;6.692;2022-10-16T16:53:35;4.10;;;2.17;;
9108;SDS011;4590;51.462;6.692;2022-10-16T16:56:05;4.63;;;1.80;;
9108;SDS011;4590;51.462;6.692;2022-10-16T17:00:56;7.72;;;3.97;;
9108;SDS011;4590;51.462;6.692;2022-10-16T17:03:27;3.95;;;3.22;;
9108;SDS011;4590;51.462;6.692;2022-10-16T17:06:00;3.30;;;2.65;;
9108;SDS011;4590;51.462;6.692;2022-10-16T17:08:25;3.10;;;2.53;;
9108;SDS011;4590;51.462;6.692;2022-10-16T17:10:51;4.07;;;2.30;;
9108;SDS011;4590;51.462;6.692;2022-10-16T17:13:19;3.40;;;1.80;;
9108;SDS011;4590;51.462;6.692;2022-10-16T17:15:53;4.30;;;2.15;;
9108;SDS011;4590;51.462;6.692;2022-10-16T17:18:20;3.38;;;2.30;;
9108;SDS011;4590;51.462;6.692;2022-10-16T17:20:48;3.38;;;2.65;;
9108;SDS011;4590;51.462;6.692;2022-10-16T17:23:13;5.55;;;2.35;;
9108;SDS011;4590;51.462;6.692;2022-10-16T17:25:40;3.10;;;1.90;;
9108;SDS011;4590;51.462;6.692;2022-10-16T17:28:06;4.45;;;2.30;;
9108;SDS011;4590;51.462;6.692;2022-10-16T17:30:32;4.85;;;2.75;;
9108;SDS011;4590;51.462;6.692;2022-10-16T17:32:59;5.65;;;3.65;;
9108;SDS011;4590;51.462;6.692;2022-10-16T17:35:25;5.95;;;3.05;;
9108;SDS011;4590;51.462;6.692;2022-10-16T17:37:51;3.20;;;1.90;;
9108;SDS011;4590;51.462;6.692;2022-10-16T17:42:42;3.03;;;1.42;;
9108;SDS011;4590;51.462;6.692;2022-10-16T17:45:07;2.13;;;1.40;;
9108;SDS011;4590;51.462;6.692;2022-10-16T17:47:33;3.13;;;1.40;;
9108;SDS011;4590;51.462;6.692;2022-10-16T17:49:58;4.77;;;2.70;;
9108;SDS011;4590;51.462;6.692;2022-10-16T17:52:23;3.77;;;2.17;;
9108;SDS011;4590;51.462;6.692;2022-10-16T17:54:49;3.13;;;1.80;;
9108;SDS011;4590;51.462;6.692;2022-10-16T17:57:16;3.15;;;1.73;;
9108;SDS011;4590;51.462;6.692;2022-10-16T17:59:41;3.50;;;1.63;;